createdAt,value
2018-07-31T12:31:45.154Z,980.19
2018-07-31T12:32:45.118Z,980.19
2018-07-31T12:33:45.012Z,980.22
2018-07-31T12:34:44.933Z,980.25
2018-07-31T12:35:44.848Z,980.22
2018-07-31T12:36:44.753Z,980.25
2018-07-31T12:38:44.534Z,980.22
2018-07-31T12:39:44.410Z,980.21
2018-07-31T12:40:44.287Z,980.19
2018-07-31T12:41:44.149Z,980.17
2018-07-31T12:42:44.019Z,980.15
2018-07-31T12:43:43.901Z,980.11
2018-07-31T12:44:43.750Z,980.09
2018-07-31T12:45:43.611Z,980.11
2018-07-31T12:46:43.572Z,980.14
2018-07-31T12:47:43.333Z,980.17
2018-07-31T12:48:43.247Z,980.15
2018-07-31T12:49:43.039Z,980.11
2018-07-31T12:50:42.899Z,980.11
2018-07-31T12:51:42.757Z,980.14
2018-07-31T12:52:42.611Z,980.14
2018-07-31T12:53:42.464Z,980.14
2018-07-31T12:54:42.318Z,980.14
2018-07-31T12:55:42.170Z,980.11
2018-07-31T12:56:42.028Z,980.08
2018-07-31T12:57:41.884Z,980.11
2018-07-31T12:58:41.741Z,980.14
2018-07-31T12:59:41.595Z,980.17
2018-07-31T13:00:41.450Z,980.14
2018-07-31T13:01:41.305Z,980.14
2018-07-31T13:02:41.166Z,980.11
2018-07-31T13:03:41.025Z,980.09
2018-07-31T13:04:40.879Z,980.09
2018-07-31T13:05:40.736Z,980.11
2018-07-31T13:06:40.652Z,980.09
2018-07-31T13:07:40.459Z,980.09
2018-07-31T13:08:40.328Z,980.11
2018-07-31T13:09:40.184Z,980.08
2018-07-31T13:10:40.041Z,980.09
2018-07-31T13:11:39.901Z,980.08
2018-07-31T13:12:39.761Z,980.08
2018-07-31T13:13:39.628Z,980.05
2018-07-31T13:14:39.486Z,980.03
2018-07-31T13:15:39.352Z,980.00
2018-07-31T13:16:39.218Z,980.02
2018-07-31T13:17:39.081Z,979.97
2018-07-31T13:18:38.942Z,979.96
2018-07-31T13:19:38.802Z,979.94
2018-07-31T13:20:38.662Z,979.91
2018-07-31T13:21:38.524Z,979.88
2018-07-31T13:22:38.383Z,979.91
2018-07-31T13:23:38.238Z,979.88
2018-07-31T13:24:38.095Z,979.85
2018-07-31T13:25:37.950Z,979.85
2018-07-31T13:26:37.804Z,979.85
2018-07-31T13:27:37.657Z,979.79
2018-07-31T13:28:37.509Z,979.82
2018-07-31T13:29:37.363Z,979.82
2018-07-31T13:30:37.260Z,979.82
2018-07-31T13:31:37.069Z,979.84
2018-07-31T13:32:36.943Z,979.84
2018-07-31T13:33:36.799Z,979.79
2018-07-31T13:34:36.615Z,979.78
2018-07-31T13:35:36.463Z,979.76
2018-07-31T13:36:36.311Z,979.76
2018-07-31T13:37:36.162Z,979.78
2018-07-31T13:38:36.015Z,979.79
2018-07-31T13:39:35.860Z,979.82
2018-07-31T13:40:35.711Z,979.84
2018-07-31T13:41:35.563Z,979.82
2018-07-31T13:42:35.414Z,979.78
2018-07-31T13:43:35.274Z,979.76
2018-07-31T13:44:35.115Z,979.76
2018-07-31T13:45:34.963Z,979.71
2018-07-31T13:46:34.815Z,979.61
2018-07-31T13:47:34.668Z,979.64
2018-07-31T13:48:34.522Z,979.64
2018-07-31T13:49:34.413Z,979.64
2018-07-31T13:50:34.226Z,979.71
2018-07-31T13:51:34.079Z,979.71
2018-07-31T13:52:33.934Z,979.73
2018-07-31T13:53:33.783Z,979.76
2018-07-31T13:54:33.638Z,979.73
2018-07-31T13:55:33.525Z,979.78
2018-07-31T13:56:33.345Z,979.78
2018-07-31T13:57:33.267Z,979.79
2018-07-31T13:58:33.122Z,979.76
2018-07-31T13:59:32.980Z,979.76
2018-07-31T14:00:32.840Z,979.71
2018-07-31T14:01:32.718Z,979.64
2018-07-31T14:02:32.556Z,979.64
2018-07-31T14:03:32.410Z,979.64
2018-07-31T14:04:32.266Z,979.76
2018-07-31T14:05:32.123Z,979.76
2018-07-31T14:06:31.982Z,979.78
2018-07-31T14:07:31.839Z,979.78
2018-07-31T14:08:31.698Z,979.73
2018-07-31T14:09:31.554Z,979.78
2018-07-31T14:10:31.404Z,979.79
2018-07-31T14:11:31.256Z,979.84
2018-07-31T14:12:31.127Z,979.82
2018-07-31T14:13:30.961Z,979.84
2018-07-31T14:14:30.813Z,979.84
2018-07-31T14:15:30.668Z,979.84
2018-07-31T14:16:30.521Z,979.84
2018-07-31T14:17:30.373Z,979.84
2018-07-31T14:18:30.223Z,979.84
2018-07-31T14:19:30.073Z,979.84
2018-07-31T14:20:29.934Z,979.82
2018-07-31T14:21:29.772Z,979.82
2018-07-31T14:22:29.617Z,979.85
2018-07-31T14:23:29.463Z,979.82
2018-07-31T14:24:29.382Z,979.82
2018-07-31T14:25:29.150Z,979.82
2018-07-31T14:26:28.994Z,979.84
2018-07-31T14:27:28.838Z,979.84
2018-07-31T14:28:28.684Z,979.88
2018-07-31T14:29:28.528Z,979.90
2018-07-31T14:30:28.413Z,979.88
2018-07-31T14:31:28.214Z,979.85
2018-07-31T14:32:28.055Z,979.85
2018-07-31T14:33:27.927Z,979.85
2018-07-31T14:34:27.742Z,979.84
2018-07-31T14:35:27.592Z,979.88
2018-07-31T14:36:27.436Z,979.91
2018-07-31T14:37:27.277Z,979.91
2018-07-31T14:38:27.126Z,979.88
2018-07-31T14:39:26.964Z,979.88
2018-07-31T14:40:26.804Z,979.88
2018-07-31T14:41:26.644Z,979.88
2018-07-31T14:42:26.484Z,979.88
2018-07-31T14:43:26.332Z,979.88
2018-07-31T14:44:26.172Z,979.90
2018-07-31T14:45:26.008Z,979.85
2018-07-31T14:46:25.853Z,979.84
2018-07-31T14:47:25.690Z,979.84
2018-07-31T14:48:25.559Z,979.79
2018-07-31T14:49:25.367Z,979.82
2018-07-31T14:50:25.199Z,979.79
2018-07-31T14:51:25.038Z,979.76
2018-07-31T14:52:24.871Z,979.76
2018-07-31T14:53:24.709Z,979.78
2018-07-31T14:54:24.546Z,979.76
2018-07-31T14:55:24.381Z,979.76
2018-07-31T14:56:24.222Z,979.78
2018-07-31T14:57:24.069Z,979.79
2018-07-31T14:58:23.915Z,979.79
2018-07-31T14:59:23.760Z,979.79
2018-07-31T15:00:23.606Z,979.82
2018-07-31T15:01:23.455Z,979.82
2018-07-31T15:02:23.300Z,979.79
2018-07-31T15:03:23.152Z,979.79
2018-07-31T15:04:23.006Z,979.79
2018-07-31T15:05:22.866Z,979.78
2018-07-31T15:06:22.721Z,979.76
2018-07-31T15:07:22.584Z,979.73
2018-07-31T15:08:22.441Z,979.76
2018-07-31T15:09:22.302Z,979.78
2018-07-31T15:10:22.162Z,979.76
2018-07-31T15:11:22.107Z,979.78
2018-07-31T15:12:21.885Z,979.76
2018-07-31T15:13:21.744Z,979.78
2018-07-31T15:14:21.600Z,979.76
2018-07-31T15:15:21.458Z,979.78
2018-07-31T15:16:21.318Z,979.76
2018-07-31T15:17:21.172Z,979.78
2018-07-31T15:18:21.028Z,979.78
2018-07-31T15:19:20.888Z,979.76
2018-07-31T15:20:20.746Z,979.78
2018-07-31T15:21:20.606Z,979.76
2018-07-31T15:22:20.469Z,979.64
2018-07-31T15:23:20.334Z,979.73
2018-07-31T15:24:20.195Z,979.71
2018-07-31T15:25:20.064Z,979.71
2018-07-31T15:26:19.931Z,979.71
2018-07-31T15:27:19.802Z,979.71
2018-07-31T15:28:19.677Z,979.64
2018-07-31T15:29:19.546Z,979.73
2018-07-31T15:30:19.421Z,979.71
2018-07-31T15:31:19.301Z,979.76
2018-07-31T15:32:19.180Z,979.73
2018-07-31T15:33:19.053Z,979.78
2018-07-31T15:34:18.954Z,979.73
2018-07-31T15:35:18.842Z,979.78
2018-07-31T15:36:18.681Z,979.78
2018-07-31T15:37:18.554Z,979.78
2018-07-31T15:38:18.431Z,979.78
2018-07-31T15:39:18.298Z,979.78
2018-07-31T15:40:18.173Z,979.79
2018-07-31T15:41:18.052Z,979.79
2018-07-31T15:42:17.928Z,979.78
2018-07-31T15:43:17.802Z,979.76
2018-07-31T15:44:17.676Z,979.78
2018-07-31T15:45:17.549Z,979.71
2018-07-31T15:46:17.443Z,979.76
2018-07-31T15:47:17.299Z,979.76
2018-07-31T15:48:17.162Z,979.76
2018-07-31T15:49:17.036Z,979.76
2018-07-31T15:50:16.903Z,979.73
2018-07-31T15:51:16.771Z,979.71
2018-07-31T15:52:16.633Z,979.73
2018-07-31T15:53:16.494Z,979.71
2018-07-31T15:54:16.360Z,979.64
2018-07-31T15:55:16.223Z,979.73
2018-07-31T15:56:16.089Z,979.73
2018-07-31T15:57:15.957Z,979.71
2018-07-31T15:58:15.826Z,979.73
2018-07-31T15:59:15.691Z,979.78
2018-07-31T16:00:15.590Z,979.76
2018-07-31T16:01:15.414Z,979.78
2018-07-31T16:02:15.276Z,979.78
2018-07-31T16:03:15.137Z,979.76
2018-07-31T16:04:14.997Z,979.76
2018-07-31T16:05:14.864Z,979.78
2018-07-31T16:06:14.728Z,979.78
2018-07-31T16:07:14.588Z,979.79
2018-07-31T16:08:14.454Z,979.84
2018-07-31T16:09:14.318Z,979.79
2018-07-31T16:10:14.186Z,979.79
2018-07-31T16:11:14.058Z,979.79
2018-07-31T16:12:13.927Z,979.78
2018-07-31T16:13:13.801Z,979.79
2018-07-31T16:14:13.676Z,979.82
2018-07-31T16:15:13.551Z,979.84
2018-07-31T16:16:13.430Z,979.82
2018-07-31T16:17:13.369Z,979.76
2018-07-31T16:18:13.180Z,979.78
2018-07-31T16:19:13.064Z,979.78
2018-07-31T16:20:12.947Z,979.79
2018-07-31T16:21:12.829Z,979.78
2018-07-31T16:22:12.701Z,979.76
2018-07-31T16:23:12.637Z,979.78
2018-07-31T16:24:12.477Z,979.79
2018-07-31T16:25:12.370Z,979.79
2018-07-31T16:26:12.261Z,979.78
2018-07-31T16:27:12.158Z,979.82
2018-07-31T16:28:12.053Z,979.79
2018-07-31T16:29:11.952Z,979.84
2018-07-31T16:30:11.848Z,979.82
2018-07-31T16:31:11.748Z,979.85
2018-07-31T16:32:11.638Z,979.85
2018-07-31T16:33:11.532Z,979.84
2018-07-31T16:34:11.421Z,979.85
2018-07-31T16:35:11.345Z,979.85
2018-07-31T16:36:11.210Z,979.84
2018-07-31T16:37:11.104Z,979.84
2018-07-31T16:38:11.003Z,979.84
2018-07-31T16:39:10.891Z,979.84
2018-07-31T16:40:10.787Z,979.84
2018-07-31T16:41:10.680Z,979.85
2018-07-31T16:42:10.574Z,979.84
2018-07-31T16:43:10.472Z,979.85
2018-07-31T16:44:10.375Z,979.88
2018-07-31T16:45:10.278Z,979.84
2018-07-31T16:46:10.218Z,979.84
2018-07-31T16:47:10.084Z,979.85
2018-07-31T16:48:09.986Z,979.84
2018-07-31T16:49:09.886Z,979.84
2018-07-31T16:50:09.792Z,979.85
2018-07-31T16:51:09.693Z,979.88
2018-07-31T16:52:09.596Z,979.85
2018-07-31T16:53:09.495Z,979.85
2018-07-31T16:54:09.399Z,979.88
2018-07-31T16:55:09.303Z,979.90
2018-07-31T16:56:09.209Z,979.88
2018-07-31T16:57:09.118Z,979.90
2018-07-31T16:58:09.027Z,979.85
2018-07-31T16:59:08.935Z,979.85
2018-07-31T17:00:08.843Z,979.88
2018-07-31T17:01:08.753Z,979.88
2018-07-31T17:02:08.659Z,979.88
2018-07-31T17:03:08.566Z,979.88
2018-07-31T17:04:08.471Z,979.85
2018-07-31T17:05:08.378Z,979.88
2018-07-31T17:06:08.281Z,979.85
2018-07-31T17:07:08.193Z,979.84
2018-07-31T17:08:08.093Z,979.85
2018-07-31T17:09:07.989Z,979.88
2018-07-31T17:10:07.889Z,979.88
2018-07-31T17:11:07.787Z,979.88
2018-07-31T17:12:07.689Z,979.85
2018-07-31T17:13:07.590Z,979.88
2018-07-31T17:14:07.490Z,979.90
2018-07-31T17:15:07.386Z,979.97
2018-07-31T17:16:07.291Z,979.96
2018-07-31T17:17:07.194Z,979.94
2018-07-31T17:18:07.093Z,979.91
2018-07-31T17:19:06.997Z,979.96
2018-07-31T17:20:06.903Z,979.96
2018-07-31T17:21:06.812Z,979.94
2018-07-31T17:22:06.721Z,979.94
2018-07-31T17:23:06.628Z,979.97
2018-07-31T17:24:06.535Z,979.97
2018-07-31T17:25:06.445Z,979.97
2018-07-31T17:26:06.361Z,980.00
2018-07-31T17:27:06.270Z,979.97
2018-07-31T17:28:06.183Z,979.96
2018-07-31T17:29:06.095Z,980.00
2018-07-31T17:30:06.011Z,980.00
2018-07-31T17:31:05.939Z,979.97
2018-07-31T17:32:05.853Z,980.00
2018-07-31T17:33:05.769Z,980.02
2018-07-31T17:34:05.683Z,980.03
2018-07-31T17:35:05.598Z,980.03
2018-07-31T17:36:05.540Z,980.05
2018-07-31T17:37:05.433Z,980.11
2018-07-31T17:38:05.347Z,980.11
2018-07-31T17:39:05.256Z,980.14
2018-07-31T17:40:05.167Z,980.15
2018-07-31T17:41:05.082Z,980.14
2018-07-31T17:42:04.990Z,980.15
2018-07-31T17:43:04.901Z,980.15
2018-07-31T17:44:04.849Z,980.17
2018-07-31T17:45:04.722Z,980.21
2018-07-31T17:46:04.637Z,980.21
2018-07-31T17:47:04.549Z,980.17
2018-07-31T17:48:04.465Z,980.19
2018-07-31T17:49:04.375Z,980.21
2018-07-31T17:50:04.287Z,980.22
2018-07-31T17:51:04.212Z,980.25
2018-07-31T17:52:04.115Z,980.25
2018-07-31T17:53:04.282Z,980.25
2018-07-31T17:54:03.950Z,980.27
2018-07-31T17:55:03.871Z,980.27
2018-07-31T17:56:03.783Z,980.28
2018-07-31T17:57:03.701Z,980.27
2018-07-31T17:58:03.611Z,980.28
2018-07-31T17:59:03.529Z,980.28
2018-07-31T18:00:03.447Z,980.30
2018-07-31T18:01:03.366Z,980.30
2018-07-31T18:02:03.283Z,980.33
2018-07-31T18:03:03.203Z,980.30
2018-07-31T18:04:03.120Z,980.33
2018-07-31T18:05:03.035Z,980.34
2018-07-31T18:06:02.957Z,980.34
2018-07-31T18:07:02.867Z,980.34
2018-07-31T18:08:02.783Z,980.39
2018-07-31T18:09:02.705Z,980.42
2018-07-31T18:10:02.627Z,980.45
2018-07-31T18:11:02.550Z,980.45
2018-07-31T18:12:02.470Z,980.45
2018-07-31T18:13:02.391Z,980.45
2018-07-31T18:14:02.349Z,980.48
2018-07-31T18:15:02.240Z,980.48
2018-07-31T18:16:02.157Z,980.53
2018-07-31T18:17:02.088Z,980.51
2018-07-31T18:18:02.013Z,980.51
2018-07-31T18:19:01.938Z,980.53
2018-07-31T18:20:01.868Z,980.54
2018-07-31T18:21:01.794Z,980.51
2018-07-31T18:22:01.723Z,980.53
2018-07-31T18:23:01.659Z,980.53
2018-07-31T18:24:01.595Z,980.53
2018-07-31T18:25:01.513Z,980.54
2018-07-31T18:26:01.441Z,980.57
2018-07-31T18:27:01.418Z,980.54
2018-07-31T18:28:01.339Z,980.57
2018-07-31T18:29:01.231Z,980.54
2018-07-31T18:30:01.161Z,980.53
2018-07-31T18:31:01.100Z,980.57
2018-07-31T18:32:01.032Z,980.59
2018-07-31T18:33:00.972Z,980.57
2018-07-31T18:34:00.906Z,980.59
2018-07-31T18:35:00.880Z,980.60
2018-07-31T18:36:00.776Z,980.59
2018-07-31T18:37:00.733Z,980.59
2018-07-31T18:38:00.644Z,980.63
2018-07-31T18:39:00.577Z,980.63
2018-07-31T18:40:00.513Z,980.60
2018-07-31T18:41:00.458Z,980.63
2018-07-31T18:42:00.391Z,980.65
2018-07-31T18:43:00.327Z,980.65
2018-07-31T18:44:00.262Z,980.63
2018-07-31T18:45:00.200Z,980.65
2018-07-31T18:46:00.139Z,980.65
2018-07-31T18:47:00.077Z,980.63
2018-07-31T19:01:15.296Z,980.73
2018-07-31T19:02:15.090Z,980.76
2018-07-31T19:03:15.025Z,980.76
2018-07-31T19:04:14.953Z,980.79
2018-07-31T19:05:14.877Z,980.78
2018-07-31T19:06:14.789Z,980.82
2018-07-31T19:07:14.701Z,980.84
2018-07-31T19:08:14.608Z,980.79
2018-07-31T19:09:14.513Z,980.82
2018-07-31T19:10:14.415Z,980.82
2018-07-31T19:11:14.315Z,980.88
2018-07-31T19:12:14.217Z,980.88
2018-07-31T19:13:14.193Z,980.90
2018-07-31T19:14:14.268Z,980.90
2018-07-31T19:15:13.920Z,980.94
2018-07-31T19:16:13.826Z,980.94
2018-07-31T19:17:13.723Z,980.96
2018-07-31T19:18:13.625Z,981.00
2018-07-31T19:19:13.527Z,981.00
2018-07-31T19:20:13.421Z,981.00
2018-07-31T19:21:13.317Z,981.02
2018-07-31T19:22:13.218Z,981.02
2018-07-31T19:23:13.117Z,981.00
2018-07-31T19:24:13.020Z,981.00
2018-07-31T19:25:12.920Z,981.02
2018-07-31T19:26:12.824Z,981.03
2018-07-31T19:27:12.726Z,981.03
2018-07-31T19:28:12.718Z,981.08
2018-07-31T19:29:12.529Z,981.08
2018-07-31T19:30:12.429Z,981.09
2018-07-31T19:31:12.332Z,981.14
2018-07-31T19:32:12.237Z,981.17
2018-07-31T19:33:12.149Z,981.15
2018-07-31T19:34:12.107Z,981.20
2018-07-31T19:35:11.957Z,981.22
2018-07-31T19:36:11.867Z,981.22
2018-07-31T19:37:48.933Z,981.25
2018-07-31T19:38:48.894Z,981.28
2018-07-31T19:39:48.882Z,981.30
2018-07-31T19:40:48.870Z,981.34
2018-07-31T19:41:48.927Z,981.39
2018-07-31T19:42:48.852Z,981.36
2018-07-31T19:43:48.837Z,981.40
2018-07-31T19:44:48.835Z,981.39
2018-07-31T19:45:48.856Z,981.42
2018-07-31T19:46:48.812Z,981.40
2018-07-31T19:47:48.794Z,981.45
2018-07-31T19:48:48.783Z,981.45
2018-07-31T19:49:48.771Z,981.45
2018-07-31T19:50:48.761Z,981.45
2018-07-31T19:51:48.750Z,981.45
2018-07-31T19:52:48.741Z,981.46
2018-07-31T19:53:48.731Z,981.46
2018-07-31T19:54:48.771Z,981.48
2018-07-31T19:55:48.709Z,981.48
2018-07-31T19:56:48.697Z,981.51
2018-07-31T19:57:48.689Z,981.48
2018-07-31T19:58:53.676Z,981.53
2018-07-31T19:59:48.666Z,981.53
2018-07-31T20:00:48.655Z,981.57
2018-07-31T20:01:48.642Z,981.57
2018-07-31T20:02:48.633Z,981.59
2018-07-31T20:03:48.663Z,981.59
2018-07-31T20:04:48.613Z,981.60
2018-07-31T20:05:48.600Z,981.60
2018-07-31T20:06:48.590Z,981.63
2018-07-31T20:07:48.577Z,981.65
2018-07-31T20:08:48.567Z,981.65
2018-07-31T20:09:48.569Z,981.63
2018-07-31T20:10:48.546Z,981.65
2018-07-31T20:11:48.535Z,981.65
2018-07-31T20:12:48.523Z,981.63
2018-07-31T20:13:48.510Z,981.63
2018-07-31T20:14:48.500Z,981.65
2018-07-31T20:15:48.613Z,981.66
2018-07-31T20:16:48.480Z,981.65
2018-07-31T20:17:48.470Z,981.65
2018-07-31T20:18:48.456Z,981.66
2018-07-31T20:19:48.445Z,981.65
2018-07-31T20:20:48.441Z,981.65
2018-07-31T20:21:48.423Z,981.65
2018-07-31T20:22:48.412Z,981.65
2018-07-31T20:23:48.400Z,981.63
2018-07-31T20:24:48.391Z,981.60
2018-07-31T20:25:48.379Z,981.65
2018-07-31T20:26:48.367Z,981.60
2018-07-31T20:27:48.359Z,981.60
2018-07-31T20:28:48.346Z,981.60
2018-07-31T20:29:48.336Z,981.60
2018-07-31T20:30:48.324Z,981.63
2018-07-31T20:31:48.313Z,981.60
2018-07-31T20:32:48.306Z,981.60
2018-07-31T20:33:48.291Z,981.65
2018-07-31T20:34:48.299Z,981.63
2018-07-31T20:35:48.268Z,981.63
2018-07-31T20:36:48.258Z,981.59
2018-07-31T20:37:48.281Z,981.57
2018-07-31T20:38:48.238Z,981.60
2018-07-31T20:39:48.233Z,981.59
2018-07-31T20:40:48.212Z,981.60
2018-07-31T20:41:48.307Z,981.60
2018-07-31T20:42:48.193Z,981.59
2018-07-31T20:43:48.185Z,981.60
2018-07-31T20:44:48.168Z,981.60
2018-07-31T20:45:48.160Z,981.63
2018-07-31T20:46:48.148Z,981.63
2018-07-31T20:47:48.136Z,981.63
2018-07-31T20:48:48.127Z,981.65
2018-07-31T20:49:48.115Z,981.65
2018-07-31T20:50:48.102Z,981.63
2018-07-31T20:51:48.091Z,981.65
2018-07-31T20:52:48.082Z,981.65
2018-07-31T20:53:48.070Z,981.63
2018-07-31T20:54:48.059Z,981.63
2018-07-31T20:55:48.049Z,981.66
2018-07-31T20:56:48.038Z,981.67
2018-07-31T20:57:48.024Z,981.66
2018-07-31T20:58:48.013Z,981.65
2018-07-31T20:59:48.050Z,981.65
2018-07-31T21:00:47.996Z,981.65
2018-07-31T21:01:47.981Z,981.65
2018-07-31T21:02:47.969Z,981.65
2018-07-31T21:03:48.004Z,981.66
2018-07-31T21:04:47.946Z,981.67
2018-07-31T21:05:47.935Z,981.71
2018-07-31T21:06:47.926Z,981.73
2018-07-31T21:07:47.915Z,981.76
2018-07-31T21:08:47.904Z,981.82
2018-07-31T21:09:47.893Z,981.84
2018-07-31T21:10:47.880Z,981.88
2018-07-31T21:11:47.869Z,981.91
2018-07-31T21:12:47.858Z,981.91
2018-07-31T21:13:47.848Z,981.91
2018-07-31T21:14:47.836Z,981.91
2018-07-31T21:15:47.825Z,981.96
2018-07-31T21:16:47.814Z,981.97
2018-07-31T21:17:47.837Z,982.00
2018-07-31T21:18:47.834Z,982.00
2018-07-31T21:19:47.780Z,982.00
2018-07-31T21:20:47.771Z,982.02
2018-07-31T21:21:47.758Z,982.03
2018-07-31T21:22:47.747Z,982.05
2018-07-31T21:23:47.736Z,982.09
2018-07-31T21:24:47.724Z,982.09
2018-07-31T21:25:47.716Z,982.15
2018-07-31T21:26:47.703Z,982.15
2018-07-31T21:27:47.692Z,982.15
2018-07-31T21:28:47.680Z,982.16
2018-07-31T21:29:47.671Z,982.29
2018-07-31T21:30:47.659Z,982.33
2018-07-31T21:31:47.655Z,982.33
2018-07-31T21:32:47.637Z,982.34
2018-07-31T21:33:47.632Z,982.34
2018-07-31T21:34:47.731Z,982.34
2018-07-31T21:35:47.608Z,982.34
2018-07-31T21:36:47.601Z,982.32
2018-07-31T21:37:47.581Z,982.33
2018-07-31T21:38:47.601Z,982.33
2018-07-31T21:39:47.559Z,982.33
2018-07-31T21:40:47.550Z,982.34
2018-07-31T21:41:47.537Z,982.33
2018-07-31T21:42:47.532Z,982.33
2018-07-31T21:43:47.519Z,982.34
2018-07-31T21:44:47.504Z,982.36
2018-07-31T21:45:47.500Z,982.33
2018-07-31T21:46:47.482Z,982.36
2018-07-31T21:47:47.492Z,982.36
2018-07-31T21:48:47.460Z,982.34
2018-07-31T21:49:47.449Z,982.36
2018-07-31T21:50:47.439Z,982.40
2018-07-31T21:51:47.429Z,982.42
2018-07-31T21:52:47.486Z,982.42
2018-07-31T21:53:47.405Z,982.42
2018-07-31T21:54:47.444Z,982.40
2018-07-31T21:55:47.385Z,982.40
2018-07-31T21:56:47.374Z,982.45
2018-07-31T21:57:47.362Z,982.51
2018-07-31T21:58:47.351Z,982.53
2018-07-31T21:59:47.341Z,982.51
2018-07-31T22:00:47.329Z,982.57
2018-07-31T22:01:47.317Z,982.57
2018-07-31T22:02:47.309Z,982.57
2018-07-31T22:03:47.294Z,982.59
2018-07-31T22:04:47.283Z,982.60
2018-07-31T22:05:47.282Z,982.63
2018-07-31T22:06:47.262Z,982.65
2018-07-31T22:07:47.301Z,982.63
2018-07-31T22:08:47.242Z,982.60
2018-07-31T22:09:47.231Z,982.69
2018-07-31T22:10:47.219Z,982.65
2018-07-31T22:11:47.209Z,982.65
2018-07-31T22:12:47.193Z,982.65
2018-07-31T22:13:47.191Z,982.63
2018-07-31T22:14:47.178Z,982.65
2018-07-31T22:15:47.162Z,982.66
2018-07-31T22:16:47.152Z,982.65
2018-07-31T22:17:47.141Z,982.66
2018-07-31T22:18:47.132Z,982.65
2018-07-31T22:19:47.119Z,982.60
2018-07-31T22:20:47.106Z,982.65
2018-07-31T22:21:47.097Z,982.65
2018-07-31T22:22:47.083Z,982.69
2018-07-31T22:23:47.074Z,982.69
2018-07-31T22:24:47.121Z,982.66
2018-07-31T22:25:47.059Z,982.65
2018-07-31T22:26:47.042Z,982.66
2018-07-31T22:27:47.029Z,982.69
2018-07-31T22:28:47.083Z,982.69
2018-07-31T22:29:47.006Z,982.65
2018-07-31T22:30:46.995Z,982.63
2018-07-31T22:31:46.986Z,982.65
2018-07-31T22:32:46.974Z,982.66
2018-07-31T22:33:46.961Z,982.66
2018-07-31T22:34:46.951Z,982.66
2018-07-31T22:35:46.943Z,982.69
2018-07-31T22:36:46.929Z,982.71
2018-07-31T22:37:46.921Z,982.72
2018-07-31T22:38:46.909Z,982.72
2018-07-31T22:39:46.925Z,982.77
2018-07-31T22:40:46.887Z,982.77
2018-07-31T22:41:46.875Z,982.78
2018-07-31T22:42:46.864Z,982.77
2018-07-31T22:43:46.854Z,982.77
2018-07-31T22:44:46.843Z,982.80
2018-07-31T22:45:46.833Z,982.83
2018-07-31T22:46:46.819Z,982.85
2018-07-31T22:47:46.827Z,982.85
2018-07-31T22:48:46.807Z,982.85
2018-07-31T22:49:46.787Z,982.88
2018-07-31T22:50:46.775Z,982.94
2018-07-31T22:51:46.766Z,982.91
2018-07-31T22:52:46.754Z,982.94
2018-07-31T22:53:46.745Z,982.96
2018-07-31T22:54:46.731Z,982.97
2018-07-31T22:55:46.719Z,982.97
2018-07-31T22:56:46.713Z,982.97
2018-07-31T22:57:46.704Z,982.96
2018-07-31T22:58:46.688Z,982.97
2018-07-31T22:59:46.675Z,983.00
2018-07-31T23:00:46.666Z,983.00
2018-07-31T23:01:46.653Z,983.03
2018-07-31T23:02:46.645Z,983.05
2018-07-31T23:03:46.631Z,983.05
2018-07-31T23:04:46.620Z,983.08
2018-07-31T23:05:46.609Z,983.08
2018-07-31T23:06:46.600Z,983.05
2018-07-31T23:07:46.589Z,983.05
2018-07-31T23:08:46.576Z,983.09
2018-07-31T23:09:46.566Z,983.09
2018-07-31T23:10:46.562Z,983.14
2018-07-31T23:11:46.551Z,983.17
2018-07-31T23:12:46.531Z,983.17
2018-07-31T23:13:46.520Z,983.15
2018-07-31T23:14:46.507Z,983.17
2018-07-31T23:15:46.497Z,983.15
2018-07-31T23:16:46.484Z,983.15
2018-07-31T23:17:46.474Z,983.15
2018-07-31T23:18:46.463Z,983.14
2018-07-31T23:19:46.450Z,983.15
2018-07-31T23:20:46.458Z,983.15
2018-07-31T23:21:46.429Z,983.17
2018-07-31T23:22:46.419Z,983.17
2018-07-31T23:23:46.405Z,983.20
2018-07-31T23:24:46.392Z,983.14
2018-07-31T23:25:46.381Z,983.20
2018-07-31T23:26:46.370Z,983.20
2018-07-31T23:27:46.357Z,983.21
2018-07-31T23:28:46.351Z,983.21
2018-07-31T23:29:46.337Z,983.23
2018-07-31T23:30:46.331Z,983.23
2018-07-31T23:31:46.314Z,983.17
2018-07-31T23:32:46.304Z,983.20
2018-07-31T23:33:46.293Z,983.26
2018-07-31T23:34:46.280Z,983.28
2018-07-31T23:35:46.270Z,983.28
2018-07-31T23:36:46.259Z,983.28
2018-07-31T23:37:46.313Z,983.23
2018-07-31T23:38:46.236Z,983.23
2018-07-31T23:39:46.226Z,983.26
2018-07-31T23:40:46.239Z,983.26
2018-07-31T23:41:46.206Z,983.23
2018-07-31T23:42:46.190Z,983.21
2018-07-31T23:43:46.180Z,983.23
2018-07-31T23:44:46.168Z,983.21
2018-07-31T23:45:46.155Z,983.20
2018-07-31T23:46:46.149Z,983.20
2018-07-31T23:47:46.133Z,983.23
2018-07-31T23:48:46.135Z,983.23
2018-07-31T23:49:46.110Z,983.23
2018-07-31T23:50:46.175Z,983.23
2018-07-31T23:51:46.088Z,983.23
2018-07-31T23:52:46.076Z,983.26
2018-07-31T23:53:46.063Z,983.23
2018-07-31T23:54:46.053Z,983.21
2018-07-31T23:55:46.040Z,983.23
2018-07-31T23:56:46.031Z,983.26
2018-07-31T23:57:46.019Z,983.26
2018-07-31T23:58:46.009Z,983.23
2018-07-31T23:59:45.996Z,983.26
